MAD weather

Adolfo Suárez Madrid–Barajas Airport
Madrid, Madrid, Spain

Public forecast

Using degrees Celsius for public forecast. Weather courtesy of forecast.io.

METAR (pilot weather report)

Retrieved 2017/11/24 13:30 UTC (3 minutes ago):

LEMD 241330Z 22010KT 170V290 9999 SCT032 17/09 Q1020 NOSIG

TAF (pilot weather forecast)

Retrieved 2017/11/24 12:28 UTC (1 hour ago):

TAF LEMD 241100Z 2412/2518 VRB05KT 9999 BKN050 TX19/2415Z TN07/2506Z TEMPO 2412/2418 22007G17KT PROB30 TEMPO 2504/2510 BKN010 BECMG 2512/2514 01010KT